To NAV CANADA Home Page Login to a new session Search on AWWS site Disclaimer Vers la page française équivalente Tips FAQ What's new on the site To the Forecasts and Observations / NOTAM section To "File a Flight Plan" website Publications and other links Update of the User's profile FIC Telephone Numbers My Weather Data Folder Route Weather Data Regional Weather Data Local Weather Data To the Forecasts and Observations / NOTAM section
Request Generated 02/17/2019 at 01:34:41 UTC . Weather information available at that time is displayed.

METAR/TAF

TORONTO/OSHAWA EXECUTIVE AIRPORT/ON    (show WxCam)

METAR CYOO 170100Z AUTO 34006KT 9SM CLR M08/M12 A3011 RMK SLP209=
METAR CYOO 170000Z AUTO 33008KT 9SM FEW230 M07/M12 A3011 RMK SLP207=
METAR CYOO 162300Z AUTO 31007KT 9SM CLR M06/M12 A3009 RMK SLP200=

TAF CYOO 161938Z 1620/1708 32012KT P6SM SKC
RMK FCST BASED ON AUTO OBS. NXT FCST BY 170200Z=

TORONTO/BUTTONVILLE MUNICIPAL/ON    

LWIS CYKZ 170100Z AUTO 36004KT M07/M11 A3010=
LWIS CYKZ 170000Z AUTO 35008KT M07/M11 A3010=
LWIS CYKZ 162300Z AUTO 34008KT M06/M11 A3009=

CYKZ - No TAF is issued for this station

PETERBOROUGH/ON    (show WxCam)

METAR CYPQ 170100Z AUTO 29009KT 9SM BKN220 BKN240 M09/M13 A3009 RMK SLP204=
METAR CYPQ 170000Z AUTO 30009KT 9SM FEW230 M08/M13 A3008 RMK SLP200=
METAR CYPQ 162300Z AUTO 29009KT 9SM CLR M07/M12 A3006 RMK SLP193=

TAF CYPQ 161938Z 1620/1703 30012KT P6SM SKC
BECMG 1701/1703 33006KT
RMK FCST BASED ON AUTO OBS. NXT FCST WILL BE ISSUED AT 171045Z=

TORONTO/BILLY BISHOP TORONTO CITY AIRPORT/ON    (show WxCam)

METAR CYTZ 170100Z AUTO 34009G15KT 9SM CLR M05/M10 A3013 RMK SLP208=
METAR CYTZ 170000Z AUTO 36011KT 9SM CLR M04/M10 A3012 RMK SLP207=
METAR CYTZ 162300Z AUTO 33004KT 290V030 9SM CLR M03/M11 A3010 RMK SLP200=

TAF CYTZ 161938Z 1620/1720 32010KT P6SM FEW025
FM170200 36010KT P6SM SKC
FM171000 03010KT P6SM SCT012 TEMPO 1710/1712 BKN012
FM171200 04012KT 6SM -SHSN BKN012
FM171500 06010G20KT 4SM -SHSN OVC012 PROB40 1715/1720 11/2SM
-SHSN OVC010
RMK FCST BASED ON AUTO OBS. NXT FCST BY 170200Z=

TORONTO/LESTER B. PEARSON INTL/ON    

METAR CYYZ 170100Z 01010KT 15SM FEW180 M06/M12 A3011 RMK AC1 AC TR SLP208=
METAR CYYZ 170000Z 01012KT 15SM FEW180 M06/M12 A3011 RMK AC1 AC TR SLP207=
METAR CYYZ 162300Z 01010KT 15SM FEW030 SCT220 M05/M11 A3008 RMK SC1CI3 SLP199=

TAF CYYZ 162339Z 1700/1806 01010KT P6SM FEW030 SCT220
FM171200 01008KT P6SM BKN012
FM171400 04008KT P6SM -SHSN BKN012 BKN220
FM171600 05010KT 4SM -SHSN BKN015 OVC140
FM172200 05012KT 4SM -SN BKN020 OVC070 PROB30 1722/1806 11/2SM
-SHSN
RMK NXT FCST BY 170300Z=
Your time UTC time
Weather data provided by Environment Canada and NAV CANADA